createdAt,value
2022-08-25T00:01:32.222Z,99.90
2022-08-25T00:04:00.734Z,99.90
2022-08-25T00:06:29.142Z,99.90
2022-08-25T00:08:59.471Z,99.90
2022-08-25T00:11:29.155Z,99.90
2022-08-25T00:14:01.554Z,99.90
2022-08-25T00:16:31.504Z,99.90
2022-08-25T00:19:01.278Z,99.90
2022-08-25T00:21:28.545Z,99.90
2022-08-25T00:23:55.148Z,99.90
2022-08-25T00:26:22.104Z,99.90
2022-08-25T00:28:48.686Z,99.90
2022-08-25T00:31:18.325Z,99.90
2022-08-25T00:33:47.154Z,99.90
2022-08-25T00:36:15.583Z,99.90
2022-08-25T00:38:44.329Z,99.90
2022-08-25T00:41:13.409Z,99.90
2022-08-25T00:43:47.513Z,99.90
2022-08-25T00:46:18.627Z,99.90
2022-08-25T00:48:49.900Z,99.90
2022-08-25T00:51:23.874Z,99.90
2022-08-25T00:53:51.200Z,99.90
2022-08-25T00:56:18.605Z,99.90
2022-08-25T00:58:48.253Z,99.90
2022-08-25T01:01:14.963Z,99.90
2022-08-25T01:03:41.716Z,99.90
2022-08-25T01:06:10.155Z,99.90
2022-08-25T01:08:36.933Z,99.90
2022-08-25T01:11:08.706Z,99.90
2022-08-25T01:13:44.677Z,99.90
2022-08-25T01:16:13.411Z,99.90
2022-08-25T01:18:56.398Z,99.90
2022-08-25T01:21:26.805Z,99.90
2022-08-25T01:23:56.001Z,99.90
2022-08-25T01:26:30.561Z,99.90
2022-08-25T01:29:17.871Z,99.90
2022-08-25T01:31:45.127Z,99.90
2022-08-25T01:34:30.758Z,99.90
2022-08-25T01:36:59.270Z,99.90
2022-08-25T01:42:14.211Z,99.90
2022-08-25T01:44:43.634Z,99.90
2022-08-25T01:48:07.637Z,99.90
2022-08-25T01:50:44.113Z,99.90
2022-08-25T01:56:19.272Z,99.90
2022-08-25T01:59:23.816Z,99.90
2022-08-25T02:01:51.732Z,99.90
2022-08-25T02:04:32.586Z,99.90
2022-08-25T02:07:01.182Z,99.90
2022-08-25T02:09:28.354Z,99.90
2022-08-25T02:11:56.169Z,99.90
2022-08-25T02:14:49.642Z,99.90
2022-08-25T02:17:45.357Z,99.90
2022-08-25T02:20:12.054Z,99.90
2022-08-25T02:22:38.657Z,99.90
2022-08-25T02:25:10.507Z,99.90
2022-08-25T02:27:37.409Z,99.90
2022-08-25T02:30:05.318Z,99.90
2022-08-25T02:32:31.943Z,99.90
2022-08-25T02:34:58.580Z,99.90
2022-08-25T02:37:25.238Z,99.90
2022-08-25T02:39:51.900Z,99.90
2022-08-25T02:42:18.638Z,99.90
2022-08-25T02:44:45.241Z,99.90
2022-08-25T02:47:12.026Z,99.90
2022-08-25T02:49:38.669Z,99.90
2022-08-25T02:52:05.427Z,99.90
2022-08-25T02:54:32.192Z,99.90
2022-08-25T02:56:59.500Z,99.90
2022-08-25T02:59:26.225Z,99.90
2022-08-25T03:01:52.950Z,99.90
2022-08-25T03:04:19.670Z,99.90
2022-08-25T03:06:46.584Z,99.90
2022-08-25T03:09:13.729Z,99.90
2022-08-25T03:11:40.454Z,99.90
2022-08-25T03:14:09.401Z,99.90
2022-08-25T03:16:36.154Z,99.90
2022-08-25T03:19:03.645Z,99.90
2022-08-25T03:21:32.725Z,99.90
2022-08-25T03:23:59.756Z,99.90
2022-08-25T03:26:45.041Z,99.90
2022-08-25T03:29:11.791Z,99.90
2022-08-25T03:31:38.924Z,99.90
2022-08-25T03:34:06.140Z,99.90
2022-08-25T03:36:32.761Z,99.90
2022-08-25T03:39:00.388Z,99.90
2022-08-25T03:41:29.753Z,99.90
2022-08-25T03:43:56.773Z,99.90
2022-08-25T03:46:26.986Z,99.90
2022-08-25T03:48:54.636Z,99.90
2022-08-25T03:51:23.434Z,99.90
2022-08-25T03:53:50.692Z,99.90
2022-08-25T03:56:18.000Z,99.90
2022-08-25T03:58:44.982Z,99.90
2022-08-25T04:01:11.856Z,99.90
2022-08-25T04:03:38.716Z,99.90
2022-08-25T04:06:06.516Z,99.90
2022-08-25T04:08:34.008Z,99.90
2022-08-25T04:11:09.311Z,99.90
2022-08-25T04:13:36.681Z,99.90
2022-08-25T04:16:11.609Z,99.90
2022-08-25T04:18:39.122Z,99.90
2022-08-25T04:21:09.074Z,99.90
2022-08-25T04:23:37.213Z,99.90
2022-08-25T04:26:12.868Z,99.90
2022-08-25T04:28:39.773Z,99.90
2022-08-25T04:31:08.743Z,99.90
2022-08-25T04:33:36.369Z,99.90
2022-08-25T04:36:06.690Z,99.90
2022-08-25T04:38:35.489Z,99.90
2022-08-25T04:41:05.665Z,99.90
2022-08-25T04:43:33.630Z,99.90
2022-08-25T04:46:04.762Z,99.90
2022-08-25T04:48:32.645Z,99.90
2022-08-25T04:50:59.260Z,99.90
2022-08-25T04:53:25.841Z,99.90
2022-08-25T04:55:52.431Z,99.90
2022-08-25T04:58:19.053Z,99.90
2022-08-25T05:00:46.648Z,99.90
2022-08-25T05:03:14.203Z,99.90
2022-08-25T05:05:40.804Z,99.90
2022-08-25T05:08:07.585Z,99.90
2022-08-25T05:10:34.610Z,99.90
2022-08-25T05:13:01.285Z,99.90
2022-08-25T05:15:46.409Z,99.90
2022-08-25T05:18:13.412Z,99.90
2022-08-25T05:20:40.023Z,99.90
2022-08-25T05:23:06.723Z,99.90
2022-08-25T05:25:35.093Z,99.90
2022-08-25T05:28:02.023Z,99.90
2022-08-25T05:30:28.749Z,99.90
2022-08-25T05:32:55.449Z,99.90
2022-08-25T05:35:22.294Z,99.90
2022-08-25T05:37:48.929Z,99.90
2022-08-25T05:40:15.641Z,99.90
2022-08-25T05:42:42.312Z,99.90
2022-08-25T05:45:09.870Z,99.90
2022-08-25T05:47:44.257Z,99.90
2022-08-25T05:50:11.303Z,99.90
2022-08-25T05:52:38.359Z,99.90
2022-08-25T05:55:05.570Z,99.90
2022-08-25T05:57:34.397Z,99.90
2022-08-25T06:00:02.480Z,99.90
2022-08-25T06:02:41.315Z,99.90
2022-08-25T06:05:14.363Z,99.90
2022-08-25T06:07:41.500Z,99.90
2022-08-25T06:10:11.588Z,99.90
2022-08-25T06:12:40.002Z,99.90
2022-08-25T06:15:07.773Z,99.90
2022-08-25T06:17:40.885Z,99.90
2022-08-25T06:20:10.725Z,99.90
2022-08-25T06:22:38.037Z,99.90
2022-08-25T06:25:05.738Z,99.90
2022-08-25T06:27:32.402Z,99.90
2022-08-25T06:30:04.741Z,99.90
2022-08-25T06:32:36.407Z,99.90
2022-08-25T06:35:04.602Z,99.90
2022-08-25T06:37:31.302Z,99.90
2022-08-25T06:39:57.901Z,99.90
2022-08-25T06:42:24.668Z,99.90
2022-08-25T06:44:51.314Z,99.90
2022-08-25T06:47:18.974Z,99.90
2022-08-25T06:49:46.041Z,98.90
2022-08-25T06:52:13.083Z,97.20
2022-08-25T06:54:39.808Z,94.90
2022-08-25T06:57:07.118Z,94.60
2022-08-25T06:59:35.398Z,92.40
2022-08-25T07:02:03.727Z,92.40
2022-08-25T07:04:30.694Z,91.20
2022-08-25T07:06:57.305Z,91.00
2022-08-25T07:09:23.880Z,91.80
2022-08-25T07:11:50.796Z,89.70
2022-08-25T07:14:18.599Z,89.70
2022-08-25T07:16:49.318Z,89.00
2022-08-25T07:19:20.543Z,89.30
2022-08-25T07:21:52.287Z,89.30
2022-08-25T07:24:18.980Z,89.30
2022-08-25T07:26:47.420Z,89.00
2022-08-25T07:29:17.420Z,89.80
2022-08-25T07:31:44.706Z,87.20
2022-08-25T07:34:29.860Z,85.90
2022-08-25T07:36:56.937Z,85.60
2022-08-25T07:39:24.573Z,86.00
2022-08-25T07:41:52.578Z,83.60
2022-08-25T07:44:21.261Z,82.80
2022-08-25T07:46:48.619Z,84.70
2022-08-25T07:49:18.080Z,86.20
2022-08-25T07:52:04.757Z,83.00
2022-08-25T07:54:35.593Z,81.50
2022-08-25T07:57:07.233Z,81.10
2022-08-25T07:59:34.802Z,80.00
2022-08-25T08:02:16.001Z,80.10
2022-08-25T08:04:50.624Z,80.00
2022-08-25T08:07:20.965Z,79.30
2022-08-25T08:09:56.077Z,79.10
2022-08-25T08:12:32.071Z,79.30
2022-08-25T08:14:59.978Z,75.60
2022-08-25T08:17:26.658Z,77.20
2022-08-25T08:19:53.329Z,74.30
2022-08-25T08:22:20.352Z,75.30
2022-08-25T08:24:54.094Z,75.50
2022-08-25T08:27:24.474Z,74.90
2022-08-25T08:29:52.141Z,73.00
2022-08-25T08:32:18.886Z,72.40
2022-08-25T08:34:46.992Z,72.40
2022-08-25T08:37:18.300Z,71.50
2022-08-25T08:39:47.144Z,75.70
2022-08-25T08:42:32.457Z,71.60
2022-08-25T08:45:21.139Z,70.90
2022-08-25T08:47:58.888Z,71.90
2022-08-25T08:50:47.768Z,71.00
2022-08-25T08:53:22.117Z,71.20
2022-08-25T08:55:53.382Z,74.30
2022-08-25T08:58:26.567Z,71.10
2022-08-25T09:00:56.296Z,70.60
2022-08-25T09:03:55.028Z,73.00
2022-08-25T09:06:44.434Z,71.60
2022-08-25T09:09:13.785Z,69.90
2022-08-25T09:12:08.021Z,71.60
2022-08-25T09:14:39.679Z,68.60
2022-08-25T09:17:17.349Z,68.70
2022-08-25T09:20:06.048Z,72.10
2022-08-25T09:22:57.636Z,73.10
2022-08-25T09:25:54.020Z,70.10
2022-08-25T09:28:39.925Z,69.20
2022-08-25T09:31:29.446Z,72.00
2022-08-25T09:33:59.744Z,70.60
2022-08-25T09:36:26.822Z,73.80
2022-08-25T09:38:53.553Z,71.00
2022-08-25T09:41:44.449Z,72.60
2022-08-25T09:44:26.005Z,72.60
2022-08-25T09:47:18.881Z,72.30
2022-08-25T09:50:06.804Z,73.10
2022-08-25T09:52:41.706Z,74.60
2022-08-25T09:55:08.390Z,76.30
2022-08-25T09:57:44.330Z,79.00
2022-08-25T10:00:15.757Z,77.10
2022-08-25T10:02:46.110Z,76.30
2022-08-25T10:05:25.696Z,78.40
2022-08-25T10:08:00.185Z,75.60
2022-08-25T10:10:34.557Z,78.80
2022-08-25T10:13:03.512Z,77.00
2022-08-25T10:15:37.966Z,76.60
2022-08-25T10:18:26.216Z,78.50
2022-08-25T10:21:09.308Z,77.60
2022-08-25T10:23:41.654Z,77.00
2022-08-25T10:26:35.391Z,78.10
2022-08-25T10:29:15.739Z,76.60
2022-08-25T10:31:56.277Z,77.80
2022-08-25T10:34:51.755Z,76.80
2022-08-25T10:37:42.218Z,78.30
2022-08-25T10:40:16.649Z,78.00
2022-08-25T10:42:59.836Z,76.90
2022-08-25T10:45:45.253Z,77.30
2022-08-25T10:48:35.046Z,78.00
2022-08-25T10:51:23.631Z,80.10
2022-08-25T10:54:07.149Z,79.20
2022-08-25T10:56:40.218Z,78.50
2022-08-25T10:59:30.263Z,78.90
2022-08-25T11:02:34.788Z,78.90
2022-08-25T11:05:36.787Z,79.90
2022-08-25T11:08:33.545Z,77.70
2022-08-25T11:11:08.059Z,78.10
2022-08-25T11:14:09.405Z,77.60
2022-08-25T11:16:53.454Z,78.00
2022-08-25T11:19:23.633Z,78.80
2022-08-25T11:22:00.761Z,78.00
2022-08-25T11:25:03.963Z,77.30
2022-08-25T11:27:59.090Z,79.80
2022-08-25T11:30:26.738Z,78.00
2022-08-25T11:32:55.365Z,79.30
2022-08-25T11:35:58.133Z,79.80
2022-08-25T11:38:49.318Z,78.20
2022-08-25T11:41:24.917Z,80.10
2022-08-25T11:44:10.131Z,76.60
2022-08-25T11:46:48.828Z,76.80
2022-08-25T11:49:31.794Z,76.60
2022-08-25T11:52:03.104Z,76.60
2022-08-25T11:54:35.067Z,77.80
2022-08-25T11:57:18.001Z,76.70
2022-08-25T11:59:57.217Z,77.60
2022-08-25T12:02:39.089Z,79.30
2022-08-25T12:05:26.163Z,79.50
2022-08-25T12:08:11.313Z,80.90
2022-08-25T12:11:11.368Z,79.90
2022-08-25T12:13:45.610Z,82.80
2022-08-25T12:17:00.393Z,76.70
2022-08-25T12:19:35.880Z,76.30
2022-08-25T12:22:03.151Z,74.70
2022-08-25T12:24:47.574Z,75.50
2022-08-25T12:27:24.854Z,77.80
2022-08-25T12:30:20.607Z,77.70
2022-08-25T12:32:47.704Z,79.80
2022-08-25T12:35:49.310Z,81.20
2022-08-25T12:38:43.558Z,80.90
2022-08-25T12:41:20.167Z,79.50
2022-08-25T12:43:48.974Z,80.40
2022-08-25T12:46:36.774Z,80.50
2022-08-25T12:49:34.116Z,80.00
2022-08-25T12:52:15.706Z,80.90
2022-08-25T12:54:47.601Z,80.50
2022-08-25T12:58:05.820Z,79.40
2022-08-25T13:01:10.201Z,79.80
2022-08-25T13:04:16.314Z,80.80
2022-08-25T13:07:07.966Z,80.40
2022-08-25T13:09:53.597Z,79.60
2022-08-25T13:12:57.871Z,79.10
2022-08-25T13:15:35.971Z,78.80
2022-08-25T13:18:23.414Z,80.70
2022-08-25T13:20:55.844Z,80.40
2022-08-25T13:23:29.124Z,80.90
2022-08-25T13:25:58.343Z,82.10
2022-08-25T13:28:34.596Z,83.30
2022-08-25T13:31:13.921Z,82.20
2022-08-25T13:33:51.418Z,82.80
2022-08-25T13:36:45.215Z,82.90
2022-08-25T13:39:45.388Z,82.80
2022-08-25T13:42:15.641Z,82.70
2022-08-25T13:44:51.636Z,83.10
2022-08-25T13:47:43.865Z,84.20
2022-08-25T13:50:30.977Z,84.80
2022-08-25T13:53:04.570Z,84.30
2022-08-25T13:55:51.844Z,84.30
2022-08-25T13:58:44.915Z,83.00
2022-08-25T14:01:49.161Z,82.40
2022-08-25T14:04:32.940Z,82.20
2022-08-25T14:07:19.400Z,82.20
2022-08-25T14:09:54.548Z,81.30
2022-08-25T14:12:31.083Z,81.80
2022-08-25T14:15:01.778Z,84.20
2022-08-25T14:17:39.504Z,83.00
2022-08-25T14:20:28.553Z,82.60
2022-08-25T14:23:05.666Z,82.50
2022-08-25T14:25:36.841Z,82.70
2022-08-25T14:28:13.720Z,83.80
2022-08-25T14:30:46.239Z,84.10
2022-08-25T14:33:14.420Z,85.90
2022-08-25T14:35:46.090Z,84.80
2022-08-25T14:38:14.464Z,83.70
2022-08-25T14:40:41.527Z,83.00
2022-08-25T14:43:09.509Z,83.20
2022-08-25T14:45:39.258Z,84.30
2022-08-25T14:48:10.370Z,84.40
2022-08-25T14:50:37.990Z,85.30
2022-08-25T14:53:08.391Z,84.90
2022-08-25T14:55:35.088Z,84.90
2022-08-25T14:58:02.094Z,85.20
2022-08-25T15:00:29.106Z,84.40
2022-08-25T15:02:55.933Z,84.90
2022-08-25T15:05:27.013Z,85.90
2022-08-25T15:08:14.109Z,85.00
2022-08-25T15:10:41.934Z,85.60
2022-08-25T15:13:10.406Z,85.80
2022-08-25T15:15:58.125Z,85.80
2022-08-25T15:18:25.895Z,86.10
2022-08-25T15:20:52.552Z,86.30
2022-08-25T15:23:19.382Z,86.90
2022-08-25T15:25:47.969Z,87.10
2022-08-25T15:28:17.241Z,87.30
2022-08-25T15:30:45.833Z,87.10
2022-08-25T15:33:13.342Z,87.40
2022-08-25T15:35:40.906Z,88.10
2022-08-25T15:38:08.026Z,88.10
2022-08-25T15:40:37.576Z,88.50
2022-08-25T15:43:05.579Z,88.90
2022-08-25T15:45:35.714Z,89.00
2022-08-25T15:48:02.443Z,89.80
2022-08-25T15:50:33.548Z,89.80
2022-08-25T15:53:00.601Z,90.10
2022-08-25T15:55:27.373Z,90.20
2022-08-25T15:57:54.221Z,90.10
2022-08-25T16:00:21.464Z,90.10
2022-08-25T16:02:48.493Z,90.40
2022-08-25T16:05:16.173Z,90.10
2022-08-25T16:07:45.701Z,90.20
2022-08-25T16:10:13.493Z,90.50
2022-08-25T16:12:40.216Z,90.60
2022-08-25T16:15:09.895Z,90.70
2022-08-25T16:17:40.777Z,91.20
2022-08-25T16:20:12.703Z,91.10
2022-08-25T16:22:41.281Z,91.10
2022-08-25T16:25:08.606Z,90.90
2022-08-25T16:27:38.650Z,91.30
2022-08-25T16:30:07.725Z,90.80
2022-08-25T16:32:34.797Z,90.60
2022-08-25T16:35:04.032Z,90.50
2022-08-25T16:37:31.936Z,90.60
2022-08-25T16:39:58.644Z,90.60
2022-08-25T16:42:26.289Z,90.80
2022-08-25T16:44:53.904Z,91.00
2022-08-25T16:47:25.096Z,91.20
2022-08-25T16:49:54.002Z,91.40
2022-08-25T16:52:40.521Z,91.70
2022-08-25T16:55:14.260Z,91.60
2022-08-25T16:57:45.268Z,91.70
2022-08-25T17:00:18.342Z,91.90
2022-08-25T17:02:45.891Z,92.10
2022-08-25T17:05:14.364Z,92.20
2022-08-25T17:07:40.969Z,92.40
2022-08-25T17:10:12.729Z,92.30
2022-08-25T17:12:39.565Z,92.30
2022-08-25T17:15:07.485Z,92.40
2022-08-25T17:17:36.425Z,92.50
2022-08-25T17:20:04.885Z,92.60
2022-08-25T17:22:31.808Z,92.70
2022-08-25T17:25:00.784Z,92.80
2022-08-25T17:27:28.116Z,92.90
2022-08-25T17:29:55.830Z,92.80
2022-08-25T17:32:23.105Z,92.90
2022-08-25T17:34:57.079Z,93.10
2022-08-25T17:37:24.418Z,93.20
2022-08-25T17:40:02.440Z,93.30
2022-08-25T17:42:30.419Z,93.40
2022-08-25T17:44:58.019Z,93.50
2022-08-25T17:47:24.615Z,93.80
2022-08-25T17:49:51.253Z,94.40
2022-08-25T17:52:19.277Z,94.70
2022-08-25T17:54:48.141Z,94.90
2022-08-25T17:57:16.045Z,95.60
2022-08-25T17:59:42.642Z,95.90
2022-08-25T18:02:09.687Z,96.10
2022-08-25T18:04:38.150Z,96.50
2022-08-25T18:07:05.224Z,96.90
2022-08-25T18:09:31.853Z,97.20
2022-08-25T18:11:58.532Z,97.60
2022-08-25T18:14:25.742Z,97.80
2022-08-25T18:16:53.584Z,98.20
2022-08-25T18:19:21.032Z,98.70
2022-08-25T18:21:47.916Z,98.80
2022-08-25T18:24:14.642Z,99.30
2022-08-25T18:26:41.597Z,99.60
2022-08-25T18:29:11.968Z,99.90
2022-08-25T18:31:40.956Z,99.90
2022-08-25T18:34:10.907Z,99.90
2022-08-25T18:36:38.765Z,99.90
2022-08-25T18:39:25.308Z,99.90
2022-08-25T18:41:52.097Z,99.90
2022-08-25T18:44:19.006Z,99.90
2022-08-25T18:46:46.357Z,99.90
2022-08-25T18:49:15.589Z,99.90
2022-08-25T18:51:44.557Z,99.90
2022-08-25T18:54:22.806Z,99.90
2022-08-25T18:56:53.931Z,99.90
2022-08-25T18:59:23.747Z,99.90
2022-08-25T19:01:52.453Z,99.90
2022-08-25T19:04:19.665Z,99.90
2022-08-25T19:06:46.276Z,99.90
2022-08-25T19:09:13.176Z,99.90
2022-08-25T19:11:39.780Z,99.90
2022-08-25T19:14:12.057Z,99.90
2022-08-25T19:16:41.037Z,99.90
2022-08-25T19:19:11.452Z,99.90
2022-08-25T19:21:39.349Z,99.90
2022-08-25T19:24:07.370Z,99.90
2022-08-25T19:26:35.688Z,99.90
2022-08-25T19:29:09.381Z,99.90
2022-08-25T19:31:37.385Z,99.90
2022-08-25T19:34:07.645Z,99.90
2022-08-25T19:36:34.328Z,99.90
2022-08-25T19:39:01.588Z,99.90
2022-08-25T19:41:31.275Z,99.90
2022-08-25T19:43:59.332Z,99.90
2022-08-25T19:46:33.131Z,99.90
2022-08-25T19:49:08.022Z,99.90
2022-08-25T19:51:36.817Z,99.90
2022-08-25T19:54:04.949Z,99.90
2022-08-25T19:56:33.845Z,99.90
2022-08-25T19:59:01.934Z,99.90
2022-08-25T20:01:28.995Z,99.90
2022-08-25T20:03:55.619Z,99.90
2022-08-25T20:06:24.189Z,99.90
2022-08-25T20:09:00.317Z,99.90
2022-08-25T20:11:28.069Z,99.90
2022-08-25T20:13:56.639Z,99.90
2022-08-25T20:16:26.610Z,99.90
2022-08-25T20:18:53.270Z,99.90
2022-08-25T20:21:19.957Z,99.90
2022-08-25T20:24:05.069Z,99.90
2022-08-25T20:26:31.682Z,99.90
2022-08-25T20:28:58.300Z,99.90
2022-08-25T20:31:25.033Z,99.90
2022-08-25T20:33:52.698Z,99.90
2022-08-25T20:36:19.882Z,99.90
2022-08-25T20:38:46.549Z,99.90
2022-08-25T20:41:14.069Z,99.90
2022-08-25T20:43:41.706Z,99.90
2022-08-25T20:46:09.133Z,99.90
2022-08-25T20:48:36.389Z,99.90
2022-08-25T20:51:07.030Z,99.90
2022-08-25T20:53:38.935Z,99.90
2022-08-25T20:56:08.842Z,99.90
2022-08-25T20:58:37.733Z,99.90
2022-08-25T21:01:09.106Z,99.90
2022-08-25T21:03:37.411Z,99.90
2022-08-25T21:06:08.577Z,99.90
2022-08-25T21:08:36.471Z,99.90
2022-08-25T21:11:03.098Z,99.90
2022-08-25T21:13:32.144Z,99.90
2022-08-25T21:16:02.317Z,99.90
2022-08-25T21:18:33.306Z,99.90
2022-08-25T21:21:12.318Z,99.90
2022-08-25T21:23:39.892Z,99.90
2022-08-25T21:26:14.525Z,99.90
2022-08-25T21:28:41.273Z,99.90
2022-08-25T21:31:16.169Z,99.90
2022-08-25T21:33:45.477Z,99.90
2022-08-25T21:36:13.928Z,99.90
2022-08-25T21:38:40.689Z,99.90
2022-08-25T21:41:30.570Z,99.90
2022-08-25T21:43:58.797Z,99.90
2022-08-25T21:46:29.387Z,99.90
2022-08-25T21:49:00.004Z,99.90
2022-08-25T21:51:32.813Z,99.90
2022-08-25T21:54:08.983Z,99.90
2022-08-25T21:57:05.638Z,99.90
2022-08-25T21:59:37.868Z,99.90
2022-08-25T22:02:08.974Z,99.90
2022-08-25T22:04:36.690Z,99.90
2022-08-25T22:07:03.370Z,99.90
2022-08-25T22:09:30.589Z,99.90
2022-08-25T22:11:58.704Z,99.90
2022-08-25T22:14:26.377Z,99.90
2022-08-25T22:16:53.962Z,99.90
2022-08-25T22:19:21.395Z,99.90
2022-08-25T22:21:49.555Z,99.90
2022-08-25T22:24:18.130Z,99.90
2022-08-25T22:26:47.672Z,99.90
2022-08-25T22:29:15.863Z,99.90
2022-08-25T22:31:52.993Z,99.90
2022-08-25T22:34:19.958Z,99.90
2022-08-25T22:36:59.861Z,99.90
2022-08-25T22:39:27.167Z,99.90
2022-08-25T22:41:53.850Z,99.90
2022-08-25T22:44:20.479Z,99.90
2022-08-25T22:46:47.091Z,99.90
2022-08-25T22:49:14.009Z,99.90
2022-08-25T22:51:41.077Z,99.90
2022-08-25T22:54:09.630Z,99.90
2022-08-25T22:56:38.800Z,99.90
2022-08-25T22:59:09.333Z,99.90
2022-08-25T23:01:36.844Z,99.90
2022-08-25T23:04:05.393Z,99.90
2022-08-25T23:06:34.285Z,99.90
2022-08-25T23:09:01.556Z,99.90
2022-08-25T23:11:29.002Z,99.90
2022-08-25T23:13:57.596Z,99.90
2022-08-25T23:16:25.054Z,99.90
2022-08-25T23:18:51.846Z,99.90
2022-08-25T23:21:40.872Z,99.90
2022-08-25T23:24:12.615Z,99.90
2022-08-25T23:26:42.020Z,99.90
2022-08-25T23:29:18.742Z,99.90
2022-08-25T23:31:47.825Z,99.90
2022-08-25T23:34:15.497Z,99.90
2022-08-25T23:36:42.954Z,99.90
2022-08-25T23:39:11.010Z,99.90
2022-08-25T23:41:37.741Z,99.90
2022-08-25T23:44:05.619Z,99.90
2022-08-25T23:46:34.896Z,99.90
2022-08-25T23:49:02.941Z,99.90
2022-08-25T23:51:34.290Z,99.90
2022-08-25T23:54:05.958Z,99.90
2022-08-25T23:56:36.058Z,99.90
2022-08-25T23:59:04.624Z,99.90
